Time;durP1;ratioP1;P1;durP2;ratioP2;P2;SDS_P1;SDS_P2;PMS_P1;PMS_P2;Temp;Humidity;BMP_temperature;BMP_pressure;BME280_temperature;BME280_humidity;BME280_pressure;Samples;Min_cycle;Max_cycle;Signal;HPM_P1;HPM_P2
2023/09/20 00:00:29;;;;;;;0.00;0.00;;;17.00;99.90;;;;;;4974645;28;20055;-65
2023/09/20 00:02:55;;;;;;;13.15;0.55;;;17.00;99.90;;;;;;4968392;28;20074;-65
2023/09/20 00:05:21;;;;;;;0.15;0.15;;;17.00;99.90;;;;;;4976548;28;20457;-65
2023/09/20 00:07:56;;;;;;;0.30;0.30;;;17.00;99.90;;;;;;4975193;28;20051;-65
2023/09/20 00:10:24;;;;;;;3.90;1.95;;;17.00;99.90;;;;;;4973660;28;20039;-65
2023/09/20 00:12:50;;;;;;;0.05;0.05;;;16.90;99.90;;;;;;4976690;28;20047;-65
2023/09/20 00:15:16;;;;;;;0.00;0.00;;;16.90;99.90;;;;;;4976209;28;20402;-65
2023/09/20 00:17:42;;;;;;;0.00;0.00;;;16.90;99.90;;;;;;4956720;28;20043;-65
2023/09/20 00:20:12;;;;;;;0.00;0.00;;;17.00;99.90;;;;;;4975964;28;20057;-65
2023/09/20 00:22:42;;;;;;;0.00;0.00;;;17.00;99.90;;;;;;4975724;28;20130;-65
2023/09/20 00:25:09;;;;;;;0.43;0.43;;;16.90;99.90;;;;;;4974335;28;20053;-65
2023/09/20 00:27:35;;;;;;;0.57;0.57;;;17.00;99.90;;;;;;4976499;28;20046;-65
2023/09/20 00:30:03;;;;;;;0.05;0.05;;;17.00;99.90;;;;;;4973901;28;20105;-65
2023/09/20 00:32:30;;;;;;;1.75;1.27;;;17.00;99.90;;;;;;4975459;28;20047;-65
2023/09/20 00:34:56;;;;;;;0.10;0.10;;;17.00;99.90;;;;;;4956619;28;20085;-65
2023/09/20 00:37:22;;;;;;;2.08;1.35;;;17.00;99.90;;;;;;4974951;28;20371;-64
2023/09/20 00:39:48;;;;;;;0.05;0.05;;;17.00;99.90;;;;;;4974495;28;20142;-65
2023/09/20 00:42:13;;;;;;;0.20;0.20;;;17.00;99.90;;;;;;4975610;28;20051;-65
2023/09/20 00:44:39;;;;;;;0.00;0.00;;;17.00;99.90;;;;;;4975125;28;20043;-64
2023/09/20 00:47:05;;;;;;;0.00;0.00;;;17.00;99.90;;;;;;4973970;28;20120;-65
2023/09/20 00:49:34;;;;;;;1.02;0.70;;;17.00;99.90;;;;;;4975683;28;20050;-65
2023/09/20 00:52:00;;;;;;;0.05;0.05;;;17.00;99.90;;;;;;4973150;28;20043;-65
2023/09/20 00:54:26;;;;;;;0.17;0.17;;;17.00;99.90;;;;;;4975057;28;20573;-65
2023/09/20 00:56:52;;;;;;;0.00;0.00;;;17.00;99.90;;;;;;4973919;28;20047;-65
2023/09/20 00:59:18;;;;;;;1.00;0.98;;;17.00;99.90;;;;;;4975049;28;20478;-66
2023/09/20 01:01:44;;;;;;;0.38;0.17;;;17.00;99.90;;;;;;4957853;28;20070;-65
2023/09/20 01:04:11;;;;;;;0.10;0.10;;;17.10;99.90;;;;;;4974724;28;20050;-66
2023/09/20 01:06:37;;;;;;;3.05;0.52;;;17.00;99.90;;;;;;4972932;28;20047;-65
2023/09/20 01:09:03;;;;;;;0.20;0.10;;;17.10;99.90;;;;;;4975386;28;20132;-65
2023/09/20 01:11:30;;;;;;;3.00;1.77;;;17.10;99.90;;;;;;4975599;28;20099;-65
2023/09/20 01:13:56;;;;;;;0.00;0.00;;;17.00;99.90;;;;;;4955493;28;20509;-65
2023/09/20 01:16:21;;;;;;;0.10;0.10;;;17.00;99.90;;;;;;4973666;28;20042;-65
2023/09/20 01:18:48;;;;;;;0.00;0.00;;;17.00;99.90;;;;;;4975339;28;20051;-65
2023/09/20 01:21:13;;;;;;;0.10;0.10;;;17.00;99.90;;;;;;4958309;28;20062;-65
2023/09/20 01:23:42;;;;;;;0.00;0.00;;;17.00;99.90;;;;;;4975177;28;20046;-65
2023/09/20 01:26:12;;;;;;;0.00;0.00;;;17.00;99.90;;;;;;4972170;28;20512;-65
2023/09/20 01:28:37;;;;;;;5.53;2.10;;;17.00;99.90;;;;;;4975166;28;20391;-65
2023/09/20 01:31:05;;;;;;;0.00;0.00;;;17.00;99.90;;;;;;4974762;28;20046;-65
2023/09/20 01:33:31;;;;;;;10.38;2.17;;;17.00;99.90;;;;;;4972491;28;20046;-65
2023/09/20 01:35:58;;;;;;;3.20;2.05;;;17.10;99.90;;;;;;4957689;28;20133;-65
2023/09/20 01:38:25;;;;;;;0.80;0.80;;;17.00;99.90;;;;;;4972876;28;20562;-65
2023/09/20 01:40:55;;;;;;;0.30;0.30;;;17.10;99.90;;;;;;4974446;28;20047;-65
2023/09/20 01:43:22;;;;;;;1.08;0.75;;;17.00;99.90;;;;;;4974643;28;20054;-64
2023/09/20 01:45:47;;;;;;;0.20;0.20;;;17.10;99.90;;;;;;4973083;28;20051;-65
2023/09/20 01:48:13;;;;;;;0.13;0.13;;;17.10;99.90;;;;;;4968437;28;20109;-64
2023/09/20 01:50:41;;;;;;;1.60;0.73;;;17.00;99.90;;;;;;4974336;28;20121;-64
2023/09/20 01:53:10;;;;;;;0.15;0.15;;;17.00;99.90;;;;;;4974831;28;20136;-64
2023/09/20 01:55:37;;;;;;;10.40;1.85;;;17.00;99.90;;;;;;4972119;28;20109;-64
2023/09/20 01:58:05;;;;;;;0.00;0.00;;;17.00;99.90;;;;;;4974775;28;20031;-64
2023/09/20 02:00:37;;;;;;;0.45;0.43;;;16.90;99.90;;;;;;4972804;28;20125;-64
2023/09/20 02:03:08;;;;;;;0.10;0.10;;;17.00;99.90;;;;;;4973798;28;20039;-65
2023/09/20 02:05:36;;;;;;;1.58;0.77;;;16.90;99.90;;;;;;4972646;28;20051;-65
2023/09/20 02:08:02;;;;;;;0.00;0.00;;;16.90;99.90;;;;;;4974330;28;20088;-65
2023/09/20 02:10:28;;;;;;;0.57;0.47;;;16.90;99.90;;;;;;4971875;28;20047;-64
2023/09/20 02:12:55;;;;;;;1.65;0.85;;;16.90;99.90;;;;;;4956608;28;20054;-65
2023/09/20 02:15:23;;;;;;;2.38;1.10;;;16.90;99.90;;;;;;4973095;28;20197;-65
2023/09/20 02:17:49;;;;;;;0.70;0.28;;;16.90;99.90;;;;;;4977141;28;20108;-65
2023/09/20 02:20:19;;;;;;;4.95;0.98;;;16.90;99.90;;;;;;4974151;28;20050;-65
2023/09/20 02:22:47;;;;;;;0.00;0.00;;;17.00;99.90;;;;;;4971590;28;20201;-65
2023/09/20 02:25:14;;;;;;;0.47;0.30;;;17.00;99.90;;;;;;4973818;28;20104;-65
2023/09/20 02:27:42;;;;;;;0.10;0.10;;;17.00;99.90;;;;;;4974112;28;20038;-65
2023/09/20 02:30:14;;;;;;;0.00;0.00;;;17.00;99.90;;;;;;4971247;28;20047;-65
2023/09/20 02:32:41;;;;;;;0.00;0.00;;;17.00;99.90;;;;;;4956428;28;20485;-65
2023/09/20 02:35:07;;;;;;;0.57;0.57;;;17.00;99.90;;;;;;4975427;28;20058;-65
2023/09/20 02:37:34;;;;;;;0.00;0.00;;;17.00;99.90;;;;;;4955802;28;20042;-64
2023/09/20 02:40:00;;;;;;;1.27;1.20;;;17.00;99.90;;;;;;4956818;28;20058;-65
2023/09/20 02:42:28;;;;;;;0.10;0.10;;;17.00;99.90;;;;;;4954189;28;20043;-64
2023/09/20 02:44:55;;;;;;;4.47;1.08;;;17.10;99.90;;;;;;4955817;28;20514;-65
2023/09/20 02:47:24;;;;;;;0.55;0.55;;;17.10;99.90;;;;;;4953957;28;20104;-65
2023/09/20 02:49:49;;;;;;;0.13;0.13;;;17.10;99.90;;;;;;4973736;28;20041;-65
2023/09/20 02:52:17;;;;;;;0.47;0.45;;;17.10;99.90;;;;;;4973022;28;20046;-65
2023/09/20 02:54:43;;;;;;;0.08;0.08;;;17.10;99.90;;;;;;4953884;28;20438;-65
2023/09/20 02:57:11;;;;;;;0.47;0.47;;;17.00;99.90;;;;;;4973179;28;20046;-65
2023/09/20 02:59:38;;;;;;;0.47;0.47;;;17.00;99.90;;;;;;4970830;28;20606;-65
2023/09/20 03:02:04;;;;;;;0.15;0.15;;;17.00;99.90;;;;;;4973404;28;20090;-65
2023/09/20 03:04:30;;;;;;;0.00;0.00;;;17.00;99.90;;;;;;4972469;28;20054;-64
2023/09/20 03:06:55;;;;;;;2.65;2.42;;;17.00;99.90;;;;;;4973062;28;20049;-65
2023/09/20 03:09:24;;;;;;;0.03;0.03;;;17.00;99.90;;;;;;4971780;28;20066;-65
2023/09/20 03:11:51;;;;;;;0.00;0.00;;;17.10;99.90;;;;;;4972388;28;20058;-65
2023/09/20 03:14:17;;;;;;;0.10;0.10;;;17.10;99.90;;;;;;4956030;28;20051;-65
2023/09/20 03:16:44;;;;;;;1.17;1.08;;;17.10;99.90;;;;;;4971638;28;20043;-65
2023/09/20 03:19:10;;;;;;;0.10;0.10;;;17.10;99.90;;;;;;4970755;28;20089;-65
2023/09/20 03:21:36;;;;;;;0.00;0.00;;;17.10;99.90;;;;;;4973209;28;20046;-65
2023/09/20 03:24:05;;;;;;;5.13;0.52;;;17.10;99.90;;;;;;4972921;28;20046;-65
2023/09/20 03:26:32;;;;;;;0.20;0.20;;;17.10;99.90;;;;;;4970794;28;20054;-65
2023/09/20 03:28:57;;;;;;;0.57;0.57;;;17.10;99.90;;;;;;4954973;28;20529;-65
2023/09/20 03:31:26;;;;;;;9.32;1.00;;;17.10;99.90;;;;;;4955598;28;20042;-65
2023/09/20 03:33:52;;;;;;;0.22;0.22;;;17.10;99.90;;;;;;4970393;28;20042;-65
2023/09/20 03:36:17;;;;;;;0.28;0.25;;;17.10;99.90;;;;;;4973091;28;20061;-65
2023/09/20 03:38:44;;;;;;;0.45;0.20;;;17.20;99.90;;;;;;4973341;28;20054;-65
2023/09/20 03:41:10;;;;;;;0.00;0.00;;;17.10;99.90;;;;;;4970326;28;20508;-65
2023/09/20 03:43:37;;;;;;;0.00;0.00;;;17.10;99.90;;;;;;4955992;28;20046;-65
2023/09/20 03:46:03;;;;;;;3.72;0.68;;;17.10;99.90;;;;;;4971308;28;20054;-65
2023/09/20 03:48:28;;;;;;;1.05;0.95;;;17.10;99.90;;;;;;4972126;28;20047;-65
2023/09/20 03:50:54;;;;;;;0.40;0.40;;;17.10;99.90;;;;;;4955753;28;20129;-65
2023/09/20 03:53:19;;;;;;;0.00;0.00;;;17.10;99.90;;;;;;4971406;28;20039;-64
2023/09/20 03:55:46;;;;;;;0.00;0.00;;;17.10;99.90;;;;;;4972270;28;20093;-65
2023/09/20 03:58:11;;;;;;;0.50;0.50;;;17.10;99.90;;;;;;4972984;28;20491;-65
2023/09/20 04:00:38;;;;;;;0.22;0.22;;;17.10;99.90;;;;;;4972604;28;20092;-67
2023/09/20 04:03:05;;;;;;;0.00;0.00;;;17.10;99.90;;;;;;4976694;28;20085;-65
2023/09/20 04:05:33;;;;;;;3.63;1.25;;;17.10;99.90;;;;;;4971412;28;20054;-65
2023/09/20 04:08:00;;;;;;;0.73;0.40;;;17.10;99.90;;;;;;4969329;28;20141;-65
2023/09/20 04:10:26;;;;;;;0.20;0.20;;;17.10;99.90;;;;;;4955592;28;20095;-65
2023/09/20 04:12:52;;;;;;;0.50;0.50;;;17.10;99.90;;;;;;4972756;28;20097;-65
2023/09/20 04:15:18;;;;;;;22.48;1.50;;;17.10;99.90;;;;;;4970379;28;20057;-64
2023/09/20 04:17:43;;;;;;;0.20;0.20;;;17.10;99.90;;;;;;4972732;28;20047;-65
2023/09/20 04:20:11;;;;;;;0.32;0.32;;;17.10;99.90;;;;;;4964572;28;20505;-65
2023/09/20 04:22:41;;;;;;;0.10;0.10;;;17.10;99.90;;;;;;4969667;28;20054;-64
2023/09/20 04:25:10;;;;;;;0.00;0.00;;;17.10;99.90;;;;;;4972500;28;20126;-64
2023/09/20 04:27:36;;;;;;;1.17;0.68;;;17.00;99.90;;;;;;4972641;28;20134;-65
2023/09/20 04:30:01;;;;;;;0.65;0.65;;;17.00;99.90;;;;;;4970024;28;20189;-64
2023/09/20 04:32:27;;;;;;;0.47;0.47;;;17.00;99.90;;;;;;4972405;28;20046;-64
2023/09/20 04:34:53;;;;;;;0.08;0.08;;;17.00;99.90;;;;;;4970179;28;20046;-65
2023/09/20 04:37:20;;;;;;;0.10;0.10;;;17.00;99.90;;;;;;4969886;28;20047;-65
2023/09/20 04:39:46;;;;;;;0.45;0.45;;;17.00;99.90;;;;;;4973521;28;20050;-65
2023/09/20 04:42:13;;;;;;;0.55;0.40;;;17.00;99.90;;;;;;4976078;28;20038;-65
2023/09/20 04:44:39;;;;;;;0.17;0.17;;;17.00;99.90;;;;;;4973308;28;20039;-65
2023/09/20 04:47:04;;;;;;;0.55;0.55;;;17.00;99.90;;;;;;4975533;28;20498;-65
2023/09/20 04:49:30;;;;;;;0.60;0.60;;;17.00;99.90;;;;;;4973990;28;20050;-65
2023/09/20 04:52:00;;;;;;;7.97;0.45;;;17.00;99.90;;;;;;4975059;28;20035;-64
2023/09/20 04:54:28;;;;;;;0.20;0.20;;;17.00;99.90;;;;;;4958238;28;20069;-65
2023/09/20 04:56:54;;;;;;;0.17;0.17;;;17.00;99.90;;;;;;4975184;28;20043;-65
2023/09/20 04:59:19;;;;;;;0.10;0.10;;;17.00;99.90;;;;;;4974039;28;20134;-65
2023/09/20 05:01:46;;;;;;;0.03;0.03;;;17.10;99.90;;;;;;4958070;28;20414;-65
2023/09/20 05:04:13;;;;;;;0.00;0.00;;;17.00;99.90;;;;;;4972890;28;20821;-65
2023/09/20 05:06:42;;;;;;;0.03;0.03;;;17.10;99.90;;;;;;4974971;28;20053;-65
2023/09/20 05:09:08;;;;;;;9.30;2.08;;;17.00;99.90;;;;;;4975188;28;20490;-65
2023/09/20 05:11:34;;;;;;;0.57;0.57;;;17.00;99.90;;;;;;4972820;28;20121;-65
2023/09/20 05:14:00;;;;;;;0.08;0.08;;;17.10;99.90;;;;;;4974721;28;20035;-65
2023/09/20 05:16:26;;;;;;;0.00;0.00;;;17.00;99.90;;;;;;4973690;28;20035;-65
2023/09/20 05:18:52;;;;;;;0.40;0.40;;;17.00;99.90;;;;;;4974273;28;20093;-65
2023/09/20 05:21:18;;;;;;;1.45;0.98;;;17.10;99.90;;;;;;4975194;28;20100;-64
2023/09/20 05:23:43;;;;;;;0.93;0.93;;;17.00;99.90;;;;;;4972012;28;20075;-65
2023/09/20 05:26:10;;;;;;;1.20;0.75;;;17.00;99.90;;;;;;4973075;28;20043;-64
2023/09/20 05:28:36;;;;;;;0.00;0.00;;;17.10;99.90;;;;;;4971987;28;20279;-64
2023/09/20 05:31:05;;;;;;;0.30;0.30;;;17.00;99.90;;;;;;4973593;28;20109;-65
2023/09/20 05:33:31;;;;;;;0.10;0.10;;;17.00;99.90;;;;;;4973101;28;20047;-65
2023/09/20 05:36:00;;;;;;;0.43;0.43;;;17.00;99.90;;;;;;4971808;28;20086;-65
2023/09/20 05:38:26;;;;;;;0.28;0.28;;;17.00;99.90;;;;;;4973350;28;20050;-65
2023/09/20 05:40:52;;;;;;;0.00;0.00;;;17.00;99.90;;;;;;4974156;28;20456;-65
2023/09/20 05:43:18;;;;;;;3.92;1.85;;;17.00;99.90;;;;;;4974681;28;20093;-65
2023/09/20 05:45:43;;;;;;;0.32;0.32;;;17.00;99.90;;;;;;4955754;28;20054;-65
2023/09/20 05:48:12;;;;;;;0.00;0.00;;;17.00;99.90;;;;;;4973608;28;20055;-64
2023/09/20 05:50:38;;;;;;;0.15;0.15;;;17.00;99.90;;;;;;4955311;28;20051;-65
2023/09/20 05:53:07;;;;;;;0.00;0.00;;;17.00;99.90;;;;;;4974481;28;20085;-64
2023/09/20 05:55:37;;;;;;;0.10;0.10;;;17.00;99.90;;;;;;4972944;28;20181;-65
2023/09/20 05:58:03;;;;;;;0.35;0.35;;;17.00;99.90;;;;;;4973040;28;20478;-65
2023/09/20 06:00:29;;;;;;;1.77;1.17;;;17.00;99.90;;;;;;4973031;28;20097;-65
2023/09/20 06:02:59;;;;;;;0.00;0.00;;;17.00;99.90;;;;;;4968032;28;20066;-64
2023/09/20 06:05:26;;;;;;;0.75;0.43;;;17.10;99.90;;;;;;4973758;28;20035;-64
2023/09/20 06:07:57;;;;;;;0.35;0.35;;;17.10;99.90;;;;;;4973526;28;20093;-64
2023/09/20 06:10:23;;;;;;;0.05;0.05;;;17.10;99.90;;;;;;4974222;28;20399;-65
2023/09/20 06:12:53;;;;;;;0.00;0.00;;;17.10;99.90;;;;;;4972036;28;20379;-65
2023/09/20 06:15:19;;;;;;;0.10;0.10;;;17.10;99.90;;;;;;4973649;28;20402;-64
2023/09/20 06:17:48;;;;;;;0.20;0.20;;;17.10;99.90;;;;;;4972028;28;20117;-65
2023/09/20 06:20:21;;;;;;;0.00;0.00;;;17.10;99.90;;;;;;4959684;28;20482;-65
2023/09/20 06:22:50;;;;;;;1.88;1.77;;;17.20;99.90;;;;;;4972000;28;20058;-65
2023/09/20 06:25:20;;;;;;;0.00;0.00;;;17.20;99.90;;;;;;4973094;28;20376;-65
2023/09/20 06:27:50;;;;;;;1.15;1.05;;;17.20;99.90;;;;;;4974448;28;20046;-65
2023/09/20 06:30:20;;;;;;;0.40;0.40;;;17.20;99.90;;;;;;4971709;28;20648;-64
2023/09/20 06:32:46;;;;;;;0.30;0.30;;;17.10;99.90;;;;;;4974303;28;20078;-64
2023/09/20 06:35:14;;;;;;;0.10;0.10;;;17.20;99.90;;;;;;4973808;28;20195;-65
2023/09/20 06:37:45;;;;;;;0.30;0.20;;;17.20;99.90;;;;;;4955821;28;20479;-65
2023/09/20 06:40:17;;;;;;;0.63;0.13;;;17.20;99.90;;;;;;4970504;28;20043;-65
2023/09/20 06:42:43;;;;;;;0.13;0.13;;;17.20;99.90;;;;;;4973323;28;20053;-65
2023/09/20 06:45:09;;;;;;;0.63;0.63;;;17.20;99.90;;;;;;4973754;28;20077;-65
2023/09/20 06:47:35;;;;;;;0.00;0.00;;;17.20;99.90;;;;;;4972270;28;20086;-65
2023/09/20 06:50:03;;;;;;;0.25;0.25;;;17.20;99.90;;;;;;4971721;28;20049;-65
2023/09/20 06:52:29;;;;;;;0.10;0.10;;;17.20;99.90;;;;;;4973468;28;20043;-65
2023/09/20 06:54:55;;;;;;;0.25;0.22;;;17.20;99.90;;;;;;4971453;28;20541;-65
2023/09/20 06:57:22;;;;;;;6.03;0.85;;;17.20;99.90;;;;;;4972916;28;20061;-65
2023/09/20 06:59:51;;;;;;;0.25;0.25;;;17.20;99.90;;;;;;4973466;28;20061;-65
2023/09/20 07:02:17;;;;;;;0.05;0.05;;;17.20;99.90;;;;;;4970978;28;20129;-64
2023/09/20 07:04:43;;;;;;;0.00;0.00;;;17.20;99.90;;;;;;4955123;28;20074;-65
2023/09/20 07:07:10;;;;;;;0.00;0.00;;;17.20;99.90;;;;;;4973417;28;20058;-65
2023/09/20 07:09:37;;;;;;;0.20;0.20;;;17.20;99.90;;;;;;4971130;28;20074;-65
2023/09/20 07:12:03;;;;;;;0.00;0.00;;;17.20;99.90;;;;;;4972072;28;20043;-65
2023/09/20 07:14:31;;;;;;;1.17;1.00;;;17.30;99.90;;;;;;4955762;28;20051;-65
2023/09/20 07:16:57;;;;;;;0.10;0.10;;;17.30;99.90;;;;;;4971426;28;20043;-65
2023/09/20 07:19:26;;;;;;;2.83;0.65;;;17.20;99.90;;;;;;4972084;28;20052;-65
2023/09/20 07:21:52;;;;;;;1.35;0.55;;;17.20;99.90;;;;;;4971331;28;20390;-65
2023/09/20 07:24:24;;;;;;;1.23;1.13;;;17.20;99.90;;;;;;4972981;28;20046;-65
2023/09/20 07:26:52;;;;;;;0.00;0.00;;;17.30;99.90;;;;;;4972745;28;21091;-64
2023/09/20 07:29:18;;;;;;;2.22;1.40;;;17.30;99.90;;;;;;4973496;28;20058;-65
2023/09/20 07:31:45;;;;;;;3.00;1.27;;;17.30;99.90;;;;;;4970502;28;20486;-65
2023/09/20 07:34:13;;;;;;;0.30;0.30;;;17.30;99.90;;;;;;4973056;28;20070;-65
2023/09/20 07:36:40;;;;;;;0.00;0.00;;;17.30;99.90;;;;;;4973098;28;20050;-65
2023/09/20 07:39:12;;;;;;;0.00;0.00;;;17.30;99.90;;;;;;4945597;28;20042;-65
2023/09/20 07:41:44;;;;;;;0.00;0.00;;;17.30;99.90;;;;;;4973155;28;20461;-65
2023/09/20 07:44:11;;;;;;;0.00;0.00;;;17.30;99.90;;;;;;4965269;28;20046;-65
2023/09/20 07:46:38;;;;;;;0.00;0.00;;;17.40;99.90;;;;;;4971954;28;20161;-64
2023/09/20 07:49:09;;;;;;;0.10;0.10;;;17.40;99.90;;;;;;4971216;28;20088;-65
2023/09/20 07:51:39;;;;;;;0.10;0.10;;;17.40;99.90;;;;;;4972914;28;20050;-65
2023/09/20 07:54:09;;;;;;;0.08;0.08;;;17.40;99.90;;;;;;4970183;28;20051;-65
2023/09/20 07:56:34;;;;;;;0.00;0.00;;;17.50;99.90;;;;;;4971394;28;20117;-65
2023/09/20 07:59:03;;;;;;;0.35;0.35;;;17.50;99.90;;;;;;4972427;28;20446;-65
2023/09/20 08:01:32;;;;;;;4.25;1.08;;;17.40;99.90;;;;;;4964264;28;20122;-65
2023/09/20 08:03:58;;;;;;;0.03;0.03;;;17.40;99.90;;;;;;4971819;28;20418;-65
2023/09/20 08:06:33;;;;;;;0.10;0.10;;;17.50;99.90;;;;;;4972518;28;20055;-65
2023/09/20 08:08:59;;;;;;;0.13;0.13;;;17.50;99.90;;;;;;4972496;28;20066;-65
2023/09/20 08:11:26;;;;;;;0.00;0.00;;;17.50;99.90;;;;;;4971082;28;20125;-64
2023/09/20 08:13:53;;;;;;;0.00;0.00;;;17.50;99.90;;;;;;4973678;28;20546;-65
2023/09/20 08:16:20;;;;;;;0.00;0.00;;;17.60;99.90;;;;;;4974644;28;20137;-65
2023/09/20 08:21:34;;;;;;;0.15;0.15;;;17.50;99.90;;;;;;4975511;28;20078;-64
2023/09/20 09:00:12;;;;;;;0.00;0.00;;;18.10;99.90;;;;;;4975933;28;20054;-64
2023/09/20 09:02:40;;;;;;;0.00;0.00;;;18.10;99.90;;;;;;4967060;28;20471;-65
2023/09/20 09:05:07;;;;;;;0.47;0.47;;;18.00;99.90;;;;;;4974417;28;20045;-64
2023/09/20 09:07:32;;;;;;;0.00;0.00;;;18.00;99.90;;;;;;4957946;28;20059;-64
2023/09/20 09:09:58;;;;;;;0.63;0.57;;;18.00;99.90;;;;;;4973573;28;20045;-64
2023/09/20 09:12:24;;;;;;;1.00;0.80;;;17.90;99.90;;;;;;4974449;28;20054;-64
2023/09/20 09:14:49;;;;;;;0.25;0.25;;;17.90;99.90;;;;;;4958179;28;20493;-65
2023/09/20 09:17:16;;;;;;;0.00;0.00;;;17.90;99.90;;;;;;4973285;28;20055;-64
2023/09/20 09:19:42;;;;;;;0.00;0.00;;;18.00;99.90;;;;;;4957307;28;20699;-65
2023/09/20 09:22:09;;;;;;;0.28;0.28;;;18.30;99.90;;;;;;4975066;28;20129;-65
2023/09/20 09:25:01;;;;;;;0.95;0.88;;;19.00;99.90;;;;;;4972467;28;20855;-65
2023/09/20 09:27:27;;;;;;;0.13;0.13;;;19.80;99.90;;;;;;4971671;28;20585;-65
2023/09/20 09:29:52;;;;;;;2.83;0.65;;;20.40;99.90;;;;;;4974946;28;20085;-65
2023/09/20 09:32:19;;;;;;;0.82;0.82;;;20.60;99.90;;;;;;4972828;28;20078;-65
2023/09/20 09:34:44;;;;;;;0.10;0.10;;;20.30;99.90;;;;;;4957160;28;20057;-65
2023/09/20 09:37:10;;;;;;;0.08;0.08;;;20.00;99.90;;;;;;4975087;28;20466;-65
2023/09/20 09:39:36;;;;;;;0.10;0.10;;;19.60;99.90;;;;;;4974121;28;20051;-65
2023/09/20 09:42:02;;;;;;;0.32;0.30;;;19.30;99.90;;;;;;4972831;28;20039;-64
2023/09/20 09:44:28;;;;;;;0.10;0.10;;;19.10;99.90;;;;;;4974872;28;20491;-64
2023/09/20 09:46:54;;;;;;;0.00;0.00;;;18.90;99.90;;;;;;4973948;28;20061;-64
2023/09/20 09:49:20;;;;;;;0.00;0.00;;;18.90;99.90;;;;;;4973394;28;20443;-64
2023/09/20 09:51:53;;;;;;;0.00;0.00;;;18.70;99.90;;;;;;4957176;28;20051;-64
2023/09/20 09:54:20;;;;;;;0.00;0.00;;;18.70;99.90;;;;;;4957011;28;20055;-64
2023/09/20 09:56:49;;;;;;;0.05;0.05;;;18.60;99.90;;;;;;4973267;28;20454;-64
2023/09/20 09:59:15;;;;;;;0.15;0.15;;;18.50;99.90;;;;;;4974577;28;20126;-65
2023/09/20 10:01:42;;;;;;;0.00;0.00;;;18.40;99.90;;;;;;4974049;28;20122;-65
2023/09/20 10:04:13;;;;;;;0.00;0.00;;;18.40;99.90;;;;;;4974991;28;20121;-65
2023/09/20 10:06:41;;;;;;;0.22;0.22;;;18.30;99.90;;;;;;4978895;28;20050;-65
2023/09/20 10:09:11;;;;;;;0.17;0.17;;;18.20;99.90;;;;;;4974661;28;20054;-65
2023/09/20 10:11:38;;;;;;;0.00;0.00;;;18.20;99.90;;;;;;4972619;28;20039;-65
2023/09/20 10:14:07;;;;;;;0.08;0.08;;;18.20;99.90;;;;;;4954726;28;20043;-65
2023/09/20 10:16:35;;;;;;;0.22;0.22;;;18.10;99.90;;;;;;4956917;28;20046;-65
2023/09/20 10:19:02;;;;;;;0.00;0.00;;;18.10;99.90;;;;;;4957186;28;20043;-65
2023/09/20 10:21:30;;;;;;;0.00;0.00;;;18.10;99.90;;;;;;4971409;28;20181;-64
2023/09/20 10:24:04;;;;;;;0.43;0.22;;;18.10;99.90;;;;;;4973865;28;20495;-65
2023/09/20 10:26:34;;;;;;;0.00;0.00;;;18.10;99.90;;;;;;4974186;28;20046;-65
2023/09/20 10:29:39;;;;;;;0.00;0.00;;;18.00;99.90;;;;;;4957330;28;20054;-65
2023/09/20 10:32:17;;;;;;;0.20;0.20;;;18.00;99.90;;;;;;4972959;28;20116;-65
2023/09/20 10:35:18;;;;;;;0.03;0.03;;;18.00;99.90;;;;;;4955627;28;20093;-65
2023/09/20 10:38:04;;;;;;;0.20;0.20;;;18.00;99.90;;;;;;4977636;28;20078;-65
2023/09/20 10:40:45;;;;;;;0.03;0.03;;;18.00;99.90;;;;;;4964580;28;20054;-65
2023/09/20 10:43:25;;;;;;;0.10;0.10;;;18.00;99.90;;;;;;4969579;28;20473;-65
2023/09/20 10:45:55;;;;;;;0.30;0.30;;;18.00;99.90;;;;;;4973747;28;20089;-65
2023/09/20 10:48:26;;;;;;;0.10;0.10;;;18.00;99.90;;;;;;4971717;28;20051;-65
2023/09/20 10:50:59;;;;;;;0.13;0.13;;;18.00;99.90;;;;;;4972846;28;20089;-65
2023/09/20 10:53:44;;;;;;;0.08;0.08;;;18.00;99.90;;;;;;4964204;28;20035;-65
2023/09/20 10:56:12;;;;;;;0.20;0.20;;;18.00;99.90;;;;;;4972215;28;20058;-64
2023/09/20 10:58:42;;;;;;;0.00;0.00;;;18.00;99.90;;;;;;4971218;28;20039;-65
2023/09/20 11:01:08;;;;;;;2.92;0.43;;;18.00;99.90;;;;;;4955878;28;20050;-65
2023/09/20 11:03:34;;;;;;;0.03;0.03;;;18.00;99.90;;;;;;4970690;28;20039;-66
2023/09/20 11:06:00;;;;;;;0.28;0.28;;;18.00;99.90;;;;;;4955966;28;20058;-64
2023/09/20 11:08:27;;;;;;;3.22;1.17;;;18.00;99.90;;;;;;4973371;28;20043;-65
2023/09/20 11:10:54;;;;;;;0.00;0.00;;;18.00;99.90;;;;;;4972347;28;20050;-64
2023/09/20 11:13:21;;;;;;;0.10;0.10;;;18.00;99.90;;;;;;4971181;28;20050;-65
2023/09/20 11:15:48;;;;;;;1.20;0.57;;;18.00;99.90;;;;;;4973197;28;20051;-64
2023/09/20 11:18:19;;;;;;;0.00;0.00;;;18.10;99.90;;;;;;4970649;28;20045;-64
2023/09/20 11:20:47;;;;;;;0.82;0.80;;;18.10;99.90;;;;;;4972810;28;20442;-64
2023/09/20 11:23:13;;;;;;;0.08;0.08;;;18.10;99.90;;;;;;4971285;28;20097;-65
2023/09/20 11:25:41;;;;;;;1.98;1.50;;;18.20;99.90;;;;;;4972182;28;20061;-64
2023/09/20 11:28:09;;;;;;;0.28;0.08;;;18.20;99.90;;;;;;4972928;28;20030;-65
2023/09/20 11:30:34;;;;;;;0.20;0.20;;;18.20;99.90;;;;;;4953779;28;20050;-65
2023/09/20 11:33:04;;;;;;;0.05;0.05;;;18.20;99.90;;;;;;4972327;28;20038;-65
2023/09/20 11:35:40;;;;;;;0.00;0.00;;;18.20;99.90;;;;;;4973159;28;20047;-65
2023/09/20 11:38:08;;;;;;;0.00;0.00;;;18.20;99.90;;;;;;4970092;28;20046;-65
2023/09/20 11:40:36;;;;;;;0.08;0.08;;;18.30;99.90;;;;;;4972896;28;20398;-65
2023/09/20 11:43:12;;;;;;;0.65;0.65;;;18.30;99.90;;;;;;4971215;28;20049;-65
2023/09/20 11:45:44;;;;;;;0.00;0.00;;;18.30;99.90;;;;;;4969236;28;20057;-64
2023/09/20 11:48:13;;;;;;;0.00;0.00;;;18.30;99.90;;;;;;4971772;28;20055;-65
2023/09/20 11:50:46;;;;;;;1.63;0.55;;;18.20;99.90;;;;;;4979211;28;20046;-64
2023/09/20 11:53:15;;;;;;;0.00;0.00;;;18.30;99.90;;;;;;4978515;28;20074;-65
2023/09/20 11:55:44;;;;;;;0.73;0.73;;;18.30;99.90;;;;;;4977513;28;20082;-65
2023/09/20 11:58:10;;;;;;;0.57;0.57;;;18.20;99.90;;;;;;4979347;28;20505;-65
2023/09/20 12:00:36;;;;;;;0.10;0.10;;;18.20;99.90;;;;;;4976406;28;20030;-65
2023/09/20 12:03:02;;;;;;;0.40;0.40;;;18.20;99.90;;;;;;4977518;28;20125;-65
2023/09/20 12:05:28;;;;;;;1.00;0.93;;;18.20;99.90;;;;;;4978928;28;20078;-65
2023/09/20 12:07:59;;;;;;;0.00;0.00;;;18.20;99.90;;;;;;4978648;28;20046;-65
2023/09/20 12:10:26;;;;;;;0.00;0.00;;;18.30;99.90;;;;;;4977655;28;20057;-65
2023/09/20 12:12:52;;;;;;;0.00;0.00;;;18.20;99.90;;;;;;4961576;28;20070;-65
2023/09/20 12:15:22;;;;;;;1.83;0.50;;;18.20;99.90;;;;;;4976652;28;20097;-65
2023/09/20 12:17:55;;;;;;;0.28;0.28;;;18.20;99.90;;;;;;4971828;28;20470;-64
2023/09/20 12:20:24;;;;;;;0.00;0.00;;;18.30;99.90;;;;;;4978464;28;20078;-64
2023/09/20 12:22:50;;;;;;;0.13;0.13;;;18.30;99.90;;;;;;4975725;28;20049;-64
2023/09/20 12:25:17;;;;;;;0.95;0.75;;;18.30;99.90;;;;;;4961570;28;20521;-64
2023/09/20 12:27:43;;;;;;;0.10;0.10;;;18.30;99.90;;;;;;4976810;28;20506;-64
2023/09/20 12:30:12;;;;;;;1.17;0.43;;;18.30;99.90;;;;;;4960990;28;20101;-64
2023/09/20 12:32:41;;;;;;;0.00;0.00;;;18.30;99.90;;;;;;4979084;28;20050;-65
2023/09/20 12:35:08;;;;;;;0.10;0.10;;;18.40;99.90;;;;;;4976376;28;20487;-64
2023/09/20 12:37:34;;;;;;;0.10;0.10;;;18.30;99.90;;;;;;4978703;28;20084;-65
2023/09/20 12:40:00;;;;;;;0.10;0.10;;;18.30;99.90;;;;;;4978990;28;20070;-64
2023/09/20 12:42:26;;;;;;;0.00;0.00;;;18.30;99.90;;;;;;4978239;28;20043;-64
2023/09/20 12:44:51;;;;;;;0.22;0.15;;;18.30;99.90;;;;;;4976605;28;20486;-64
2023/09/20 12:47:19;;;;;;;0.00;0.00;;;18.30;99.90;;;;;;4978427;28;20057;-65
2023/09/20 12:49:46;;;;;;;2.47;2.13;;;18.30;99.90;;;;;;4958724;28;20058;-64
2023/09/20 12:52:12;;;;;;;0.30;0.30;;;18.30;99.90;;;;;;4978798;28;20047;-64
2023/09/20 12:54:38;;;;;;;0.95;0.73;;;18.30;99.90;;;;;;4976619;28;20521;-64
2023/09/20 12:57:03;;;;;;;2.83;0.73;;;18.30;99.90;;;;;;4960691;28;20049;-64
2023/09/20 12:59:29;;;;;;;0.05;0.05;;;18.30;99.90;;;;;;4976416;28;20046;-64
2023/09/20 13:01:55;;;;;;;0.38;0.38;;;18.40;99.90;;;;;;4975318;28;20034;-64
2023/09/20 13:04:20;;;;;;;0.32;0.32;;;18.40;99.90;;;;;;4973204;28;20051;-64
2023/09/20 13:06:46;;;;;;;0.20;0.20;;;18.40;99.90;;;;;;4975862;28;20030;-65
2023/09/20 13:09:14;;;;;;;0.13;0.13;;;18.50;99.90;;;;;;4973706;28;20066;-65
2023/09/20 13:11:41;;;;;;;0.00;0.00;;;18.50;99.90;;;;;;4972034;28;20789;-65
2023/09/20 13:14:07;;;;;;;0.17;0.15;;;18.60;99.90;;;;;;4957973;28;20047;-64
2023/09/20 13:16:34;;;;;;;0.10;0.10;;;18.50;99.90;;;;;;4973003;28;20047;-64
2023/09/20 13:19:02;;;;;;;0.30;0.30;;;18.70;99.90;;;;;;4975863;28;20043;-65
2023/09/20 13:21:28;;;;;;;0.10;0.10;;;18.70;99.90;;;;;;4973512;28;20050;-64
2023/09/20 13:23:58;;;;;;;0.00;0.00;;;18.80;99.90;;;;;;4974557;28;20038;-64
2023/09/20 13:26:23;;;;;;;0.30;0.28;;;18.80;99.90;;;;;;4956392;28;20475;-65